sensor_id;sensor_type;location;lat;lon;timestamp;P1;durP1;ratioP1;P2;durP2;ratioP2
72113;SDS011;59989;46.220;19.888;2022-11-09T00:02:11;0.77;;;0.25;;
72113;SDS011;59989;46.220;19.888;2022-11-09T00:05:14;0.63;;;0.22;;
72113;SDS011;59989;46.220;19.888;2022-11-09T00:08:16;1.17;;;0.57;;
72113;SDS011;59989;46.220;19.888;2022-11-09T00:11:19;0.50;;;0.20;;
72113;SDS011;59989;46.220;19.888;2022-11-09T00:14:22;1.48;;;0.65;;
72113;SDS011;59989;46.220;19.888;2022-11-09T00:17:24;2.50;;;1.15;;
72113;SDS011;59989;46.220;19.888;2022-11-09T00:20:27;1.05;;;0.38;;
72113;SDS011;59989;46.220;19.888;2022-11-09T00:23:29;1.63;;;0.73;;
72113;SDS011;59989;46.220;19.888;2022-11-09T00:26:32;0.93;;;0.53;;
72113;SDS011;59989;46.220;19.888;2022-11-09T00:29:34;2.70;;;2.10;;
72113;SDS011;59989;46.220;19.888;2022-11-09T00:32:36;0.90;;;0.38;;
72113;SDS011;59989;46.220;19.888;2022-11-09T00:35:40;1.40;;;0.70;;
72113;SDS011;59989;46.220;19.888;2022-11-09T00:38:46;0.50;;;0.20;;
72113;SDS011;59989;46.220;19.888;2022-11-09T00:41:53;1.17;;;0.30;;
72113;SDS011;59989;46.220;19.888;2022-11-09T00:44:55;0.30;;;0.10;;
72113;SDS011;59989;46.220;19.888;2022-11-09T00:47:58;0.70;;;0.30;;
72113;SDS011;59989;46.220;19.888;2022-11-09T00:51:00;1.40;;;0.45;;
72113;SDS011;59989;46.220;19.888;2022-11-09T00:54:03;0.67;;;0.30;;
72113;SDS011;59989;46.220;19.888;2022-11-09T00:57:05;1.23;;;0.73;;
72113;SDS011;59989;46.220;19.888;2022-11-09T01:00:08;1.20;;;0.60;;
72113;SDS011;59989;46.220;19.888;2022-11-09T01:03:11;0.80;;;0.40;;
72113;SDS011;59989;46.220;19.888;2022-11-09T01:06:18;1.00;;;0.45;;
72113;SDS011;59989;46.220;19.888;2022-11-09T01:09:22;0.87;;;0.40;;
72113;SDS011;59989;46.220;19.888;2022-11-09T01:12:25;2.50;;;1.00;;
72113;SDS011;59989;46.220;19.888;2022-11-09T01:15:27;1.02;;;0.47;;
72113;SDS011;59989;46.220;19.888;2022-11-09T01:18:30;2.55;;;1.40;;
72113;SDS011;59989;46.220;19.888;2022-11-09T01:21:32;1.10;;;0.45;;
72113;SDS011;59989;46.220;19.888;2022-11-09T01:24:35;0.70;;;0.30;;
72113;SDS011;59989;46.220;19.888;2022-11-09T01:27:38;0.73;;;0.30;;
72113;SDS011;59989;46.220;19.888;2022-11-09T01:30:41;1.85;;;0.50;;
72113;SDS011;59989;46.220;19.888;2022-11-09T01:33:44;1.23;;;0.50;;
72113;SDS011;59989;46.220;19.888;2022-11-09T01:36:49;0.55;;;0.20;;
72113;SDS011;59989;46.220;19.888;2022-11-09T01:39:52;1.07;;;0.40;;
72113;SDS011;59989;46.220;19.888;2022-11-09T01:42:55;0.40;;;0.20;;
72113;SDS011;59989;46.220;19.888;2022-11-09T01:46:14;0.45;;;0.13;;
72113;SDS011;59989;46.220;19.888;2022-11-09T01:49:43;0.75;;;0.40;;
72113;SDS011;59989;46.220;19.888;2022-11-09T01:52:50;0.73;;;0.20;;
72113;SDS011;59989;46.220;19.888;2022-11-09T01:55:54;0.70;;;0.30;;
72113;SDS011;59989;46.220;19.888;2022-11-09T01:59:01;1.70;;;1.37;;
72113;SDS011;59989;46.220;19.888;2022-11-09T02:02:07;1.65;;;0.85;;
72113;SDS011;59989;46.220;19.888;2022-11-09T02:05:14;0.85;;;0.30;;
72113;SDS011;59989;46.220;19.888;2022-11-09T02:08:23;0.95;;;0.35;;
72113;SDS011;59989;46.220;19.888;2022-11-09T02:11:27;1.83;;;0.87;;
72113;SDS011;59989;46.220;19.888;2022-11-09T02:14:31;1.43;;;0.90;;
72113;SDS011;59989;46.220;19.888;2022-11-09T02:17:35;0.47;;;0.20;;
72113;SDS011;59989;46.220;19.888;2022-11-09T02:20:49;0.77;;;0.20;;
72113;SDS011;59989;46.220;19.888;2022-11-09T02:23:57;0.50;;;0.20;;
72113;SDS011;59989;46.220;19.888;2022-11-09T02:27:01;2.37;;;1.07;;
72113;SDS011;59989;46.220;19.888;2022-11-09T02:30:07;0.40;;;0.10;;
72113;SDS011;59989;46.220;19.888;2022-11-09T02:33:10;1.02;;;0.40;;
72113;SDS011;59989;46.220;19.888;2022-11-09T02:36:13;0.40;;;0.20;;
72113;SDS011;59989;46.220;19.888;2022-11-09T02:39:17;0.85;;;0.50;;
72113;SDS011;59989;46.220;19.888;2022-11-09T02:42:24;0.80;;;0.40;;
72113;SDS011;59989;46.220;19.888;2022-11-09T02:45:27;0.30;;;0.10;;
72113;SDS011;59989;46.220;19.888;2022-11-09T02:48:29;0.80;;;0.28;;
72113;SDS011;59989;46.220;19.888;2022-11-09T02:51:32;0.88;;;0.35;;
72113;SDS011;59989;46.220;19.888;2022-11-09T02:54:34;0.90;;;0.50;;
72113;SDS011;59989;46.220;19.888;2022-11-09T02:57:38;0.40;;;0.10;;
72113;SDS011;59989;46.220;19.888;2022-11-09T03:00:44;0.30;;;0.10;;
72113;SDS011;59989;46.220;19.888;2022-11-09T03:03:47;1.95;;;0.70;;
72113;SDS011;59989;46.220;19.888;2022-11-09T03:06:49;1.40;;;0.73;;
72113;SDS011;59989;46.220;19.888;2022-11-09T03:09:53;0.50;;;0.20;;
72113;SDS011;59989;46.220;19.888;2022-11-09T03:12:58;0.50;;;0.20;;
72113;SDS011;59989;46.220;19.888;2022-11-09T03:16:06;0.30;;;0.10;;
72113;SDS011;59989;46.220;19.888;2022-11-09T03:19:12;0.47;;;0.20;;
72113;SDS011;59989;46.220;19.888;2022-11-09T03:22:15;0.98;;;0.38;;
72113;SDS011;59989;46.220;19.888;2022-11-09T03:25:19;1.02;;;0.60;;
72113;SDS011;59989;46.220;19.888;2022-11-09T03:28:22;0.70;;;0.30;;
72113;SDS011;59989;46.220;19.888;2022-11-09T03:31:26;0.40;;;0.20;;
72113;SDS011;59989;46.220;19.888;2022-11-09T03:34:31;1.17;;;0.68;;
72113;SDS011;59989;46.220;19.888;2022-11-09T03:37:33;0.40;;;0.20;;
72113;SDS011;59989;46.220;19.888;2022-11-09T03:40:36;1.02;;;0.30;;
72113;SDS011;59989;46.220;19.888;2022-11-09T03:43:38;0.77;;;0.30;;
72113;SDS011;59989;46.220;19.888;2022-11-09T03:46:40;0.87;;;0.33;;
72113;SDS011;59989;46.220;19.888;2022-11-09T03:49:43;0.30;;;0.10;;
72113;SDS011;59989;46.220;19.888;2022-11-09T03:52:46;0.68;;;0.28;;
72113;SDS011;59989;46.220;19.888;2022-11-09T03:55:48;1.55;;;0.63;;
72113;SDS011;59989;46.220;19.888;2022-11-09T03:58:51;0.40;;;0.10;;
72113;SDS011;59989;46.220;19.888;2022-11-09T04:01:53;0.40;;;0.20;;
72113;SDS011;59989;46.220;19.888;2022-11-09T04:04:56;0.70;;;0.38;;
72113;SDS011;59989;46.220;19.888;2022-11-09T04:07:58;0.75;;;0.40;;
72113;SDS011;59989;46.220;19.888;2022-11-09T04:11:00;0.52;;;0.20;;
72113;SDS011;59989;46.220;19.888;2022-11-09T04:14:03;1.17;;;0.73;;
72113;SDS011;59989;46.220;19.888;2022-11-09T04:17:05;0.70;;;0.30;;
72113;SDS011;59989;46.220;19.888;2022-11-09T04:20:07;0.52;;;0.20;;
72113;SDS011;59989;46.220;19.888;2022-11-09T04:23:11;0.50;;;0.20;;
72113;SDS011;59989;46.220;19.888;2022-11-09T04:26:14;0.40;;;0.20;;
72113;SDS011;59989;46.220;19.888;2022-11-09T04:29:17;0.40;;;0.13;;
72113;SDS011;59989;46.220;19.888;2022-11-09T04:32:19;0.70;;;0.23;;
72113;SDS011;59989;46.220;19.888;2022-11-09T04:35:22;0.30;;;0.10;;
72113;SDS011;59989;46.220;19.888;2022-11-09T04:38:25;0.40;;;0.20;;
72113;SDS011;59989;46.220;19.888;2022-11-09T04:41:27;0.38;;;0.20;;
72113;SDS011;59989;46.220;19.888;2022-11-09T04:44:29;0.40;;;0.20;;
72113;SDS011;59989;46.220;19.888;2022-11-09T04:47:32;0.30;;;0.10;;
72113;SDS011;59989;46.220;19.888;2022-11-09T04:50:34;0.40;;;0.20;;
72113;SDS011;59989;46.220;19.888;2022-11-09T04:53:37;0.93;;;0.55;;
72113;SDS011;59989;46.220;19.888;2022-11-09T04:56:40;0.80;;;0.30;;
72113;SDS011;59989;46.220;19.888;2022-11-09T04:59:42;0.40;;;0.20;;
72113;SDS011;59989;46.220;19.888;2022-11-09T05:02:45;0.57;;;0.20;;
72113;SDS011;59989;46.220;19.888;2022-11-09T05:05:47;0.40;;;0.10;;
72113;SDS011;59989;46.220;19.888;2022-11-09T05:08:50;0.30;;;0.10;;
72113;SDS011;59989;46.220;19.888;2022-11-09T05:11:53;0.40;;;0.10;;
72113;SDS011;59989;46.220;19.888;2022-11-09T05:14:56;0.57;;;0.23;;
72113;SDS011;59989;46.220;19.888;2022-11-09T05:17:58;0.87;;;0.40;;
72113;SDS011;59989;46.220;19.888;2022-11-09T05:21:02;0.50;;;0.20;;
72113;SDS011;59989;46.220;19.888;2022-11-09T05:24:05;1.02;;;0.30;;
72113;SDS011;59989;46.220;19.888;2022-11-09T05:27:08;0.50;;;0.20;;
72113;SDS011;59989;46.220;19.888;2022-11-09T05:30:10;0.67;;;0.30;;
72113;SDS011;59989;46.220;19.888;2022-11-09T05:33:13;0.60;;;0.20;;
72113;SDS011;59989;46.220;19.888;2022-11-09T05:36:18;0.40;;;0.10;;
72113;SDS011;59989;46.220;19.888;2022-11-09T05:39:21;0.40;;;0.10;;
72113;SDS011;59989;46.220;19.888;2022-11-09T05:42:23;0.50;;;0.20;;
72113;SDS011;59989;46.220;19.888;2022-11-09T05:45:26;0.40;;;0.20;;
72113;SDS011;59989;46.220;19.888;2022-11-09T05:48:43;1.00;;;0.47;;
72113;SDS011;59989;46.220;19.888;2022-11-09T05:51:46;0.30;;;0.10;;
72113;SDS011;59989;46.220;19.888;2022-11-09T05:54:48;0.40;;;0.13;;
72113;SDS011;59989;46.220;19.888;2022-11-09T05:57:51;0.95;;;0.40;;
72113;SDS011;59989;46.220;19.888;2022-11-09T06:00:53;1.10;;;0.40;;
72113;SDS011;59989;46.220;19.888;2022-11-09T06:03:55;0.50;;;0.20;;
72113;SDS011;59989;46.220;19.888;2022-11-09T06:06:58;0.60;;;0.30;;
72113;SDS011;59989;46.220;19.888;2022-11-09T06:10:01;0.40;;;0.20;;
72113;SDS011;59989;46.220;19.888;2022-11-09T06:13:03;0.40;;;0.10;;
72113;SDS011;59989;46.220;19.888;2022-11-09T06:16:07;0.40;;;0.20;;
72113;SDS011;59989;46.220;19.888;2022-11-09T06:19:10;0.60;;;0.20;;
72113;SDS011;59989;46.220;19.888;2022-11-09T06:22:13;0.93;;;0.50;;
72113;SDS011;59989;46.220;19.888;2022-11-09T06:25:15;0.47;;;0.20;;
72113;SDS011;59989;46.220;19.888;2022-11-09T06:28:18;1.88;;;0.43;;
72113;SDS011;59989;46.220;19.888;2022-11-09T06:31:21;0.80;;;0.30;;
72113;SDS011;59989;46.220;19.888;2022-11-09T06:34:24;0.50;;;0.20;;
72113;SDS011;59989;46.220;19.888;2022-11-09T06:37:26;0.60;;;0.20;;
72113;SDS011;59989;46.220;19.888;2022-11-09T06:40:32;0.93;;;0.82;;
72113;SDS011;59989;46.220;19.888;2022-11-09T06:43:34;0.40;;;0.20;;
72113;SDS011;59989;46.220;19.888;2022-11-09T06:46:37;0.60;;;0.23;;
72113;SDS011;59989;46.220;19.888;2022-11-09T06:49:39;0.43;;;0.20;;
72113;SDS011;59989;46.220;19.888;2022-11-09T06:52:41;0.50;;;0.20;;
72113;SDS011;59989;46.220;19.888;2022-11-09T06:55:44;0.88;;;0.40;;
72113;SDS011;59989;46.220;19.888;2022-11-09T06:58:52;3.50;;;0.43;;
72113;SDS011;59989;46.220;19.888;2022-11-09T07:01:54;0.60;;;0.20;;
72113;SDS011;59989;46.220;19.888;2022-11-09T07:05:02;2.57;;;0.60;;
72113;SDS011;59989;46.220;19.888;2022-11-09T07:08:05;1.80;;;1.15;;
72113;SDS011;59989;46.220;19.888;2022-11-09T07:11:12;0.68;;;0.30;;
72113;SDS011;59989;46.220;19.888;2022-11-09T07:14:17;0.73;;;0.30;;
72113;SDS011;59989;46.220;19.888;2022-11-09T07:17:20;0.40;;;0.20;;
72113;SDS011;59989;46.220;19.888;2022-11-09T07:20:22;0.63;;;0.20;;
72113;SDS011;59989;46.220;19.888;2022-11-09T07:23:25;0.50;;;0.20;;
72113;SDS011;59989;46.220;19.888;2022-11-09T07:26:27;0.70;;;0.30;;
72113;SDS011;59989;46.220;19.888;2022-11-09T07:29:30;0.40;;;0.20;;
72113;SDS011;59989;46.220;19.888;2022-11-09T07:32:33;0.67;;;0.27;;
72113;SDS011;59989;46.220;19.888;2022-11-09T07:35:57;0.73;;;0.47;;
72113;SDS011;59989;46.220;19.888;2022-11-09T07:39:00;1.30;;;0.60;;
72113;SDS011;59989;46.220;19.888;2022-11-09T07:42:02;0.70;;;0.28;;
72113;SDS011;59989;46.220;19.888;2022-11-09T07:45:06;0.95;;;0.63;;
72113;SDS011;59989;46.220;19.888;2022-11-09T07:48:11;0.40;;;0.20;;
72113;SDS011;59989;46.220;19.888;2022-11-09T07:51:14;0.70;;;0.30;;
72113;SDS011;59989;46.220;19.888;2022-11-09T07:54:16;0.40;;;0.20;;
72113;SDS011;59989;46.220;19.888;2022-11-09T07:57:20;0.43;;;0.20;;
72113;SDS011;59989;46.220;19.888;2022-11-09T08:00:23;0.82;;;0.30;;
72113;SDS011;59989;46.220;19.888;2022-11-09T08:03:26;0.70;;;0.20;;
72113;SDS011;59989;46.220;19.888;2022-11-09T08:06:28;1.23;;;0.60;;
72113;SDS011;59989;46.220;19.888;2022-11-09T08:09:31;1.77;;;1.35;;
72113;SDS011;59989;46.220;19.888;2022-11-09T08:12:33;0.60;;;0.22;;
72113;SDS011;59989;46.220;19.888;2022-11-09T08:15:39;0.75;;;0.22;;
72113;SDS011;59989;46.220;19.888;2022-11-09T08:18:42;0.70;;;0.23;;
72113;SDS011;59989;46.220;19.888;2022-11-09T08:21:45;0.70;;;0.30;;
72113;SDS011;59989;46.220;19.888;2022-11-09T08:24:47;0.90;;;0.28;;
72113;SDS011;59989;46.220;19.888;2022-11-09T08:27:50;0.82;;;0.28;;
72113;SDS011;59989;46.220;19.888;2022-11-09T08:30:55;0.98;;;0.45;;
72113;SDS011;59989;46.220;19.888;2022-11-09T08:33:58;0.50;;;0.20;;
72113;SDS011;59989;46.220;19.888;2022-11-09T08:37:01;2.80;;;0.53;;
72113;SDS011;59989;46.220;19.888;2022-11-09T08:40:04;3.13;;;0.50;;
72113;SDS011;59989;46.220;19.888;2022-11-09T08:43:08;1.15;;;0.73;;
72113;SDS011;59989;46.220;19.888;2022-11-09T08:46:12;0.95;;;0.40;;
72113;SDS011;59989;46.220;19.888;2022-11-09T08:49:14;0.63;;;0.30;;
72113;SDS011;59989;46.220;19.888;2022-11-09T08:52:17;3.20;;;1.00;;
72113;SDS011;59989;46.220;19.888;2022-11-09T08:55:20;1.35;;;0.52;;
72113;SDS011;59989;46.220;19.888;2022-11-09T08:58:23;1.02;;;0.40;;
72113;SDS011;59989;46.220;19.888;2022-11-09T09:01:25;2.08;;;0.40;;
72113;SDS011;59989;46.220;19.888;2022-11-09T09:04:28;1.07;;;0.33;;
72113;SDS011;59989;46.220;19.888;2022-11-09T09:07:31;1.03;;;0.40;;
72113;SDS011;59989;46.220;19.888;2022-11-09T09:10:33;1.58;;;0.52;;
72113;SDS011;59989;46.220;19.888;2022-11-09T09:13:36;1.05;;;0.43;;
72113;SDS011;59989;46.220;19.888;2022-11-09T09:16:44;0.75;;;0.28;;
72113;SDS011;59989;46.220;19.888;2022-11-09T09:19:47;1.00;;;0.40;;
72113;SDS011;59989;46.220;19.888;2022-11-09T09:22:51;1.87;;;0.87;;
72113;SDS011;59989;46.220;19.888;2022-11-09T09:25:53;1.73;;;0.70;;
72113;SDS011;59989;46.220;19.888;2022-11-09T09:29:00;2.85;;;1.10;;
72113;SDS011;59989;46.220;19.888;2022-11-09T09:32:02;2.85;;;1.52;;
72113;SDS011;59989;46.220;19.888;2022-11-09T09:35:05;1.83;;;0.53;;
72113;SDS011;59989;46.220;19.888;2022-11-09T09:38:07;6.20;;;1.67;;
72113;SDS011;59989;46.220;19.888;2022-11-09T09:41:16;1.52;;;0.70;;
72113;SDS011;59989;46.220;19.888;2022-11-09T09:44:35;1.67;;;0.75;;
72113;SDS011;59989;46.220;19.888;2022-11-09T09:51:23;1.10;;;0.40;;
72113;SDS011;59989;46.220;19.888;2022-11-09T09:54:40;1.17;;;0.43;;
72113;SDS011;59989;46.220;19.888;2022-11-09T09:57:47;1.45;;;0.40;;
72113;SDS011;59989;46.220;19.888;2022-11-09T10:00:58;2.45;;;0.93;;
72113;SDS011;59989;46.220;19.888;2022-11-09T10:11:43;1.17;;;0.40;;
72113;SDS011;59989;46.220;19.888;2022-11-09T10:18:27;2.08;;;1.17;;
72113;SDS011;59989;46.220;19.888;2022-11-09T10:21:44;3.05;;;1.27;;
72113;SDS011;59989;46.220;19.888;2022-11-09T10:28:15;2.10;;;0.60;;
72113;SDS011;59989;46.220;19.888;2022-11-09T10:31:19;1.63;;;0.47;;
72113;SDS011;59989;46.220;19.888;2022-11-09T10:37:38;2.90;;;1.50;;
72113;SDS011;59989;46.220;19.888;2022-11-09T10:44:11;1.77;;;0.80;;
72113;SDS011;59989;46.220;19.888;2022-11-09T10:47:47;1.77;;;0.55;;
72113;SDS011;59989;46.220;19.888;2022-11-09T10:55:19;1.63;;;0.60;;
72113;SDS011;59989;46.220;19.888;2022-11-09T10:58:50;6.03;;;0.73;;
72113;SDS011;59989;46.220;19.888;2022-11-09T11:05:45;3.30;;;1.83;;
72113;SDS011;59989;46.220;19.888;2022-11-09T11:09:20;3.00;;;0.90;;
72113;SDS011;59989;46.220;19.888;2022-11-09T11:12:56;3.25;;;0.95;;
72113;SDS011;59989;46.220;19.888;2022-11-09T11:19:55;3.23;;;1.47;;
72113;SDS011;59989;46.220;19.888;2022-11-09T11:23:43;3.30;;;1.92;;
72113;SDS011;59989;46.220;19.888;2022-11-09T11:27:09;3.95;;;1.45;;
72113;SDS011;59989;46.220;19.888;2022-11-09T11:30:36;6.18;;;1.80;;
72113;SDS011;59989;46.220;19.888;2022-11-09T11:33:59;6.67;;;1.50;;
72113;SDS011;59989;46.220;19.888;2022-11-09T11:49:05;2.90;;;1.25;;
72113;SDS011;59989;46.220;19.888;2022-11-09T11:52:58;5.23;;;1.70;;
72113;SDS011;59989;46.220;19.888;2022-11-09T11:56:44;7.07;;;1.93;;
72113;SDS011;59989;46.220;19.888;2022-11-09T12:00:12;8.38;;;2.17;;
72113;SDS011;59989;46.220;19.888;2022-11-09T12:18:10;8.10;;;1.80;;
72113;SDS011;59989;46.220;19.888;2022-11-09T12:29:01;4.73;;;1.80;;
72113;SDS011;59989;46.220;19.888;2022-11-09T12:32:57;4.67;;;2.13;;
72113;SDS011;59989;46.220;19.888;2022-11-09T12:40:12;5.30;;;2.03;;
72113;SDS011;59989;46.220;19.888;2022-11-09T12:47:25;5.03;;;2.67;;
72113;SDS011;59989;46.220;19.888;2022-11-09T12:50:50;4.57;;;2.00;;
72113;SDS011;59989;46.220;19.888;2022-11-09T12:54:12;4.85;;;1.85;;
72113;SDS011;59989;46.220;19.888;2022-11-09T12:57:33;5.75;;;2.00;;
72113;SDS011;59989;46.220;19.888;2022-11-09T13:00:55;5.68;;;2.47;;
72113;SDS011;59989;46.220;19.888;2022-11-09T13:04:25;3.77;;;1.57;;
72113;SDS011;59989;46.220;19.888;2022-11-09T13:07:51;7.40;;;3.27;;
72113;SDS011;59989;46.220;19.888;2022-11-09T13:11:17;7.45;;;2.85;;
72113;SDS011;59989;46.220;19.888;2022-11-09T13:14:39;4.88;;;2.15;;
72113;SDS011;59989;46.220;19.888;2022-11-09T13:18:02;6.03;;;2.25;;
72113;SDS011;59989;46.220;19.888;2022-11-09T13:21:43;7.63;;;2.42;;
72113;SDS011;59989;46.220;19.888;2022-11-09T13:25:32;4.13;;;1.70;;
72113;SDS011;59989;46.220;19.888;2022-11-09T13:32:34;6.57;;;2.00;;
72113;SDS011;59989;46.220;19.888;2022-11-09T13:35:57;6.10;;;2.45;;
72113;SDS011;59989;46.220;19.888;2022-11-09T13:39:31;6.43;;;2.63;;
72113;SDS011;59989;46.220;19.888;2022-11-09T13:43:35;6.27;;;2.27;;
72113;SDS011;59989;46.220;19.888;2022-11-09T13:46:44;7.53;;;2.55;;
72113;SDS011;59989;46.220;19.888;2022-11-09T13:50:09;5.32;;;1.92;;
72113;SDS011;59989;46.220;19.888;2022-11-09T13:56:58;4.00;;;1.50;;
72113;SDS011;59989;46.220;19.888;2022-11-09T14:00:24;6.53;;;2.10;;
72113;SDS011;59989;46.220;19.888;2022-11-09T14:03:49;6.38;;;2.10;;
72113;SDS011;59989;46.220;19.888;2022-11-09T14:14:58;3.60;;;1.47;;
72113;SDS011;59989;46.220;19.888;2022-11-09T14:22:44;5.45;;;1.52;;
72113;SDS011;59989;46.220;19.888;2022-11-09T14:26:06;3.00;;;1.27;;
72113;SDS011;59989;46.220;19.888;2022-11-09T14:29:29;3.97;;;1.25;;
72113;SDS011;59989;46.220;19.888;2022-11-09T14:32:53;4.30;;;1.43;;
72113;SDS011;59989;46.220;19.888;2022-11-09T14:36:15;2.87;;;0.97;;
72113;SDS011;59989;46.220;19.888;2022-11-09T14:39:36;2.00;;;0.77;;
72113;SDS011;59989;46.220;19.888;2022-11-09T14:43:33;2.72;;;0.95;;
72113;SDS011;59989;46.220;19.888;2022-11-09T14:46:55;2.25;;;0.95;;
72113;SDS011;59989;46.220;19.888;2022-11-09T14:50:21;3.17;;;1.07;;
72113;SDS011;59989;46.220;19.888;2022-11-09T14:53:47;4.67;;;1.60;;
72113;SDS011;59989;46.220;19.888;2022-11-09T14:57:12;2.35;;;1.13;;
72113;SDS011;59989;46.220;19.888;2022-11-09T15:00:35;4.25;;;1.95;;
72113;SDS011;59989;46.220;19.888;2022-11-09T15:04:15;4.25;;;2.13;;
72113;SDS011;59989;46.220;19.888;2022-11-09T15:07:46;2.43;;;0.80;;
72113;SDS011;59989;46.220;19.888;2022-11-09T15:11:08;4.77;;;1.30;;
72113;SDS011;59989;46.220;19.888;2022-11-09T15:14:30;3.85;;;1.38;;
72113;SDS011;59989;46.220;19.888;2022-11-09T15:17:52;3.22;;;1.40;;
72113;SDS011;59989;46.220;19.888;2022-11-09T15:24:45;3.13;;;1.40;;
72113;SDS011;59989;46.220;19.888;2022-11-09T15:31:29;2.53;;;1.33;;
72113;SDS011;59989;46.220;19.888;2022-11-09T15:41:58;3.07;;;1.10;;
72113;SDS011;59989;46.220;19.888;2022-11-09T15:45:19;5.27;;;2.03;;
72113;SDS011;59989;46.220;19.888;2022-11-09T15:48:41;4.70;;;2.00;;
72113;SDS011;59989;46.220;19.888;2022-11-09T15:52:07;5.15;;;1.75;;
72113;SDS011;59989;46.220;19.888;2022-11-09T15:55:30;3.70;;;2.03;;
72113;SDS011;59989;46.220;19.888;2022-11-09T15:58:52;4.37;;;1.47;;
72113;SDS011;59989;46.220;19.888;2022-11-09T16:02:13;1.30;;;0.43;;
72113;SDS011;59989;46.220;19.888;2022-11-09T16:05:34;5.38;;;2.05;;
72113;SDS011;59989;46.220;19.888;2022-11-09T16:08:56;3.33;;;1.77;;
72113;SDS011;59989;46.220;19.888;2022-11-09T16:12:17;2.47;;;0.98;;
72113;SDS011;59989;46.220;19.888;2022-11-09T16:15:39;2.00;;;0.67;;
72113;SDS011;59989;46.220;19.888;2022-11-09T16:19:00;3.77;;;1.00;;
72113;SDS011;59989;46.220;19.888;2022-11-09T16:22:21;4.60;;;1.50;;
72113;SDS011;59989;46.220;19.888;2022-11-09T16:25:42;3.28;;;1.42;;
72113;SDS011;59989;46.220;19.888;2022-11-09T16:29:04;4.10;;;1.65;;
72113;SDS011;59989;46.220;19.888;2022-11-09T16:32:25;2.77;;;1.07;;
72113;SDS011;59989;46.220;19.888;2022-11-09T16:35:46;4.53;;;1.90;;
72113;SDS011;59989;46.220;19.888;2022-11-09T16:39:08;1.85;;;0.88;;
72113;SDS011;59989;46.220;19.888;2022-11-09T16:42:36;2.85;;;1.17;;
72113;SDS011;59989;46.220;19.888;2022-11-09T16:45:58;3.72;;;2.00;;
72113;SDS011;59989;46.220;19.888;2022-11-09T16:49:19;8.00;;;2.73;;
72113;SDS011;59989;46.220;19.888;2022-11-09T16:52:40;4.00;;;1.90;;
72113;SDS011;59989;46.220;19.888;2022-11-09T16:56:01;5.60;;;2.28;;
72113;SDS011;59989;46.220;19.888;2022-11-09T16:59:22;3.05;;;1.42;;
72113;SDS011;59989;46.220;19.888;2022-11-09T17:02:44;4.45;;;2.10;;
72113;SDS011;59989;46.220;19.888;2022-11-09T17:06:05;2.03;;;0.87;;
72113;SDS011;59989;46.220;19.888;2022-11-09T17:09:32;3.57;;;1.97;;
72113;SDS011;59989;46.220;19.888;2022-11-09T17:12:53;4.20;;;1.83;;
72113;SDS011;59989;46.220;19.888;2022-11-09T17:16:18;3.60;;;1.88;;
72113;SDS011;59989;46.220;19.888;2022-11-09T17:19:39;3.63;;;1.48;;
72113;SDS011;59989;46.220;19.888;2022-11-09T17:23:00;4.30;;;1.60;;
72113;SDS011;59989;46.220;19.888;2022-11-09T17:26:22;3.23;;;1.33;;
72113;SDS011;59989;46.220;19.888;2022-11-09T17:29:43;3.40;;;1.48;;
72113;SDS011;59989;46.220;19.888;2022-11-09T17:33:05;5.50;;;1.38;;
72113;SDS011;59989;46.220;19.888;2022-11-09T17:36:26;5.47;;;2.03;;
72113;SDS011;59989;46.220;19.888;2022-11-09T17:40:07;3.00;;;1.70;;
72113;SDS011;59989;46.220;19.888;2022-11-09T17:43:30;2.80;;;1.23;;
72113;SDS011;59989;46.220;19.888;2022-11-09T17:46:52;5.00;;;2.42;;
72113;SDS011;59989;46.220;19.888;2022-11-09T17:50:14;3.88;;;1.63;;
72113;SDS011;59989;46.220;19.888;2022-11-09T17:53:35;7.70;;;2.33;;
72113;SDS011;59989;46.220;19.888;2022-11-09T17:56:57;9.43;;;3.63;;
72113;SDS011;59989;46.220;19.888;2022-11-09T18:00:20;7.63;;;4.73;;
72113;SDS011;59989;46.220;19.888;2022-11-09T18:03:43;3.53;;;1.13;;
72113;SDS011;59989;46.220;19.888;2022-11-09T18:07:04;3.58;;;1.40;;
72113;SDS011;59989;46.220;19.888;2022-11-09T18:10:25;7.40;;;3.40;;
72113;SDS011;59989;46.220;19.888;2022-11-09T18:13:47;6.30;;;1.80;;
72113;SDS011;59989;46.220;19.888;2022-11-09T18:17:08;2.57;;;1.07;;
72113;SDS011;59989;46.220;19.888;2022-11-09T18:20:29;9.85;;;4.00;;
72113;SDS011;59989;46.220;19.888;2022-11-09T18:23:51;7.35;;;2.85;;
72113;SDS011;59989;46.220;19.888;2022-11-09T18:27:12;2.15;;;0.82;;
72113;SDS011;59989;46.220;19.888;2022-11-09T18:30:33;3.97;;;1.30;;
72113;SDS011;59989;46.220;19.888;2022-11-09T18:33:54;3.63;;;1.00;;
72113;SDS011;59989;46.220;19.888;2022-11-09T18:37:16;6.57;;;1.75;;
72113;SDS011;59989;46.220;19.888;2022-11-09T18:40:37;2.50;;;0.82;;
72113;SDS011;59989;46.220;19.888;2022-11-09T18:43:58;4.38;;;1.90;;
72113;SDS011;59989;46.220;19.888;2022-11-09T18:47:19;6.67;;;3.17;;
72113;SDS011;59989;46.220;19.888;2022-11-09T18:50:41;4.50;;;1.13;;
72113;SDS011;59989;46.220;19.888;2022-11-09T18:54:02;3.53;;;1.42;;
72113;SDS011;59989;46.220;19.888;2022-11-09T18:57:24;3.50;;;1.17;;
72113;SDS011;59989;46.220;19.888;2022-11-09T19:00:45;5.93;;;3.03;;
72113;SDS011;59989;46.220;19.888;2022-11-09T19:04:08;3.20;;;1.80;;
72113;SDS011;59989;46.220;19.888;2022-11-09T19:07:32;2.27;;;0.83;;
72113;SDS011;59989;46.220;19.888;2022-11-09T19:10:54;2.35;;;1.35;;
72113;SDS011;59989;46.220;19.888;2022-11-09T19:14:15;7.13;;;1.50;;
72113;SDS011;59989;46.220;19.888;2022-11-09T19:17:36;2.85;;;1.20;;
72113;SDS011;59989;46.220;19.888;2022-11-09T19:20:59;5.67;;;1.80;;
72113;SDS011;59989;46.220;19.888;2022-11-09T19:24:21;3.53;;;1.43;;
72113;SDS011;59989;46.220;19.888;2022-11-09T19:27:45;4.82;;;2.28;;
72113;SDS011;59989;46.220;19.888;2022-11-09T19:31:05;2.90;;;1.60;;
72113;SDS011;59989;46.220;19.888;2022-11-09T19:34:37;3.13;;;1.58;;
72113;SDS011;59989;46.220;19.888;2022-11-09T19:38:00;2.33;;;0.90;;
72113;SDS011;59989;46.220;19.888;2022-11-09T19:41:26;5.63;;;1.63;;
72113;SDS011;59989;46.220;19.888;2022-11-09T19:44:47;3.85;;;1.80;;
72113;SDS011;59989;46.220;19.888;2022-11-09T19:48:16;2.28;;;1.00;;
72113;SDS011;59989;46.220;19.888;2022-11-09T19:51:37;3.05;;;1.42;;
72113;SDS011;59989;46.220;19.888;2022-11-09T19:54:59;5.10;;;1.63;;
72113;SDS011;59989;46.220;19.888;2022-11-09T19:58:20;4.23;;;2.37;;
72113;SDS011;59989;46.220;19.888;2022-11-09T20:01:42;5.40;;;2.17;;
72113;SDS011;59989;46.220;19.888;2022-11-09T20:05:05;4.75;;;1.63;;
72113;SDS011;59989;46.220;19.888;2022-11-09T20:08:27;5.00;;;1.70;;
72113;SDS011;59989;46.220;19.888;2022-11-09T20:11:48;8.63;;;1.00;;
72113;SDS011;59989;46.220;19.888;2022-11-09T20:15:27;3.10;;;1.30;;
72113;SDS011;59989;46.220;19.888;2022-11-09T20:18:49;2.08;;;0.95;;
72113;SDS011;59989;46.220;19.888;2022-11-09T20:22:10;6.03;;;2.88;;
72113;SDS011;59989;46.220;19.888;2022-11-09T20:25:32;5.38;;;2.45;;
72113;SDS011;59989;46.220;19.888;2022-11-09T20:28:54;4.37;;;2.17;;
72113;SDS011;59989;46.220;19.888;2022-11-09T20:32:16;3.13;;;1.47;;
72113;SDS011;59989;46.220;19.888;2022-11-09T20:35:41;2.25;;;0.60;;
72113;SDS011;59989;46.220;19.888;2022-11-09T20:39:10;3.20;;;1.58;;
72113;SDS011;59989;46.220;19.888;2022-11-09T20:42:31;3.72;;;2.08;;
72113;SDS011;59989;46.220;19.888;2022-11-09T20:45:54;1.60;;;0.70;;
72113;SDS011;59989;46.220;19.888;2022-11-09T20:49:16;3.27;;;1.17;;
72113;SDS011;59989;46.220;19.888;2022-11-09T20:52:37;2.83;;;1.13;;
72113;SDS011;59989;46.220;19.888;2022-11-09T20:55:59;2.53;;;0.98;;